^^

..:: Storico WU ::..




Lo storico viene creato da WUnderground con i dati che la stazione Meteomincio invia al loro server. L' aggiornamento viene fatto ogni 5 minuti circa, tuttavia possono esserci intervalli pił ampi a causa di errori, interruzioni di servizio o problemi nell' invio tramite FTP.


Storico stazione MeteoMincio
Giorno Sommario per Agosto 08, 2022 Unità:  Inglese    Metrico   Entrambi
Giorno Settimana Mese Anno
  Max: Min: Media:
Temperatura: 87.8 °F 71.6 °F 79.3 °F
Dew Point: 71.6 °F 66.2 °F 68.7 °F
Umidità: 89% 51% 72%
Velocità vento: 7.5mph 0mph 3mph
Raffica: 10.6mph - -
Direzione- - SSE
Pressione: 30 in 29.9 in -
Precipitazioni: 0 in    
 
 
Tabulato Dati per Agosto 08, 2022
Ora Temperatura Dew Point Pressione Direzione Velocità vento Raffica Umidità Intensità pioggia (oraria) Info solare Situazione
00:04 73.4 °F 68 °F 30 in WNW 1.2 mph 2.5 mph 87% 0 in 0.00 W/m2 unknown
00:09 73.4 °F 68 °F 30 in WNW 1.2 mph 2.5 mph 86% 0 in 0.00 W/m2 unknown
00:14 73.4 °F 69.8 °F 30 in NW 1.2 mph 2.5 mph 86% 0 in 0.00 W/m2 unknown
00:19 73.4 °F 68 °F 30 in NW 1.2 mph 2.5 mph 85% 0 in 0.00 W/m2 unknown
00:24 73.4 °F 69.8 °F 30 in NW 1.2 mph 1.9 mph 85% 0 in 0.00 W/m2 unknown
00:29 73.4 °F 69.8 °F 30 in Calm   1.2 mph 85% 0 in 0.00 W/m2 unknown
00:34 73.4 °F 68 °F 30 in NW 1.2 mph 2.5 mph 86% 0 in 0.00 W/m2 unknown
00:39 73.4 °F 68 °F 30 in NW 1.2 mph 1.9 mph 86% 0 in 0.00 W/m2 unknown
00:44 73.4 °F 68 °F 30 in NW 1.2 mph 2.5 mph 86% 0 in 0.00 W/m2 unknown
00:49 73.4 °F 68 °F 30 in NW 1.2 mph 2.5 mph 86% 0 in 0.00 W/m2 unknown
00:54 73.4 °F 68 °F 30 in WNW 2.5 mph 3.7 mph 86% 0 in 0.00 W/m2 unknown
00:59 73.4 °F 68 °F 30 in WNW 1.9 mph 3.7 mph 86% 0 in 0.00 W/m2 unknown
01:04 73.4 °F 68 °F 30 in WNW 1.9 mph 3.7 mph 86% 0 in 0.00 W/m2 unknown
01:09 73.4 °F 68 °F 30 in WNW 3.1 mph 3.7 mph 86% 0 in 0.00 W/m2 unknown
01:14 73.4 °F 68 °F 30 in West 2.5 mph 3.7 mph 86% 0 in 0.00 W/m2 unknown
01:15 73.4 °F 68 °F 30 in West 1.9 mph 3.7 mph 86% 0 in 0.00 W/m2 unknown
01:24 73.4 °F 68 °F 30 in WNW 1.2 mph 3.1 mph 86% 0 in 0.00 W/m2 unknown
01:29 73.4 °F 68 °F 30 in WNW 1.2 mph 2.5 mph 86% 0 in 0.00 W/m2 unknown
01:34 73.4 °F 68 °F 30 in WNW 1.2 mph 2.5 mph 86% 0 in 0.00 W/m2 unknown
01:39 73.4 °F 68 °F 30 in Calm   1.9 mph 86% 0 in 0.00 W/m2 unknown
01:44 73.4 °F 68 °F 30 in WNW 1.2 mph 2.5 mph 86% 0 in 0.00 W/m2 unknown
01:49 73.4 °F 68 °F 30 in WNW 1.2 mph 2.5 mph 86% 0 in 0.00 W/m2 unknown
01:54 73.4 °F 68 °F 30 in West 3.1 mph 3.7 mph 87% 0 in 0.00 W/m2 unknown
01:59 71.6 °F 68 °F 30 in West 3.1 mph 3.7 mph 87% 0 in 0.00 W/m2 unknown
02:04 71.6 °F 68 °F 30 in West 1.9 mph 3.1 mph 88% 0 in 0.00 W/m2 unknown
02:09 71.6 °F 68 °F 30 in WNW 1.2 mph 2.5 mph 88% 0 in 0.00 W/m2 unknown
02:14 71.6 °F 68 °F 30 in WNW 1.9 mph 3.1 mph 88% 0 in 0.00 W/m2 unknown
02:19 71.6 °F 68 °F 30 in NW 1.2 mph 3.7 mph 88% 0 in 0.00 W/m2 unknown
02:24 71.6 °F 68 °F 30 in NW 1.2 mph 3.1 mph 88% 0 in 0.00 W/m2 unknown
02:29 71.6 °F 68 °F 30 in Calm   1.2 mph 87% 0 in 0.00 W/m2 unknown
02:34 71.6 °F 68 °F 30 in NNW 0.6 mph 2.5 mph 88% 0 in 0.00 W/m2 unknown
02:39 71.6 °F 68 °F 30 in NNW 1.2 mph 1.9 mph 88% 0 in 0.00 W/m2 unknown
02:44 71.6 °F 68 °F 30 in NNW 1.2 mph 1.9 mph 88% 0 in 0.00 W/m2 unknown
02:49 71.6 °F 68 °F 30 in NNW 1.2 mph 2.5 mph 88% 0 in 0.00 W/m2 unknown
02:54 71.6 °F 68 °F 30 in NW 1.2 mph 2.5 mph 88% 0 in 0.00 W/m2 unknown
02:59 71.6 °F 68 °F 30 in WNW 1.9 mph 2.5 mph 88% 0 in 0.00 W/m2 unknown
03:04 71.6 °F 68 °F 30 in NW 1.2 mph 2.5 mph 87% 0 in 0.00 W/m2 unknown
03:09 71.6 °F 68 °F 30 in WNW 2.5 mph 3.7 mph 87% 0 in 0.00 W/m2 unknown
03:14 71.6 °F 68 °F 30 in NNW 2.5 mph 3.7 mph 87% 0 in 0.00 W/m2 unknown
03:19 71.6 °F 68 °F 30 in NW 1.9 mph 3.7 mph 87% 0 in 0.00 W/m2 unknown
03:24 71.6 °F 68 °F 30 in North 1.2 mph 3.1 mph 87% 0 in 0.00 W/m2 unknown
03:29 73.4 °F 68 °F 30 in NNW 1.2 mph 2.5 mph 87% 0 in 0.00 W/m2 unknown
03:34 73.4 °F 68 °F 30 in NNW 1.2 mph 2.5 mph 86% 0 in 0.00 W/m2 unknown
03:39 73.4 °F 68 °F 30 in NNW 1.2 mph 2.5 mph 86% 0 in 0.00 W/m2 unknown
03:44 73.4 °F 68 °F 30 in North 1.9 mph 2.5 mph 86% 0 in 0.00 W/m2 unknown
03:49 73.4 °F 68 °F 30 in North 1.2 mph 2.5 mph 86% 0 in 0.00 W/m2 unknown
03:54 73.4 °F 68 °F 30 in North 1.2 mph 1.9 mph 86% 0 in 0.00 W/m2 unknown
03:59 73.4 °F 68 °F 30 in North 1.2 mph 2.5 mph 86% 0 in 0.00 W/m2 unknown
04:04 73.4 °F 68 °F 30 in North 1.2 mph 2.5 mph 87% 0 in 0.00 W/m2 unknown
04:09 73.4 °F 68 °F 30 in North 1.2 mph 2.5 mph 87% 0 in 0.00 W/m2 unknown
04:14 71.6 °F 68 °F 30 in North 1.2 mph 1.9 mph 88% 0 in 0.00 W/m2 unknown
04:19 71.6 °F 68 °F 30 in North 0.6 mph 2.5 mph 88% 0 in 0.00 W/m2 unknown
04:24 71.6 °F 68 °F 30 in North 1.2 mph 1.9 mph 88% 0 in 0.00 W/m2 unknown
04:29 71.6 °F 68 °F 30 in NNW 0.6 mph 1.2 mph 89% 0 in 0.00 W/m2 unknown
04:34 71.6 °F 68 °F 30 in NNW 1.9 mph 3.7 mph 89% 0 in 0.00 W/m2 unknown
04:39 71.6 °F 68 °F 30 in NNW 1.9 mph 3.7 mph 89% 0 in 0.00 W/m2 unknown
04:44 71.6 °F 68 °F 30 in NNE 3.7 mph 5 mph 88% 0 in 0.00 W/m2 unknown
04:49 71.6 °F 68 °F 30 in NNE 3.7 mph 5 mph 88% 0 in 0.00 W/m2 unknown
04:54 71.6 °F 68 °F 30 in NNE 3.1 mph 5 mph 88% 0 in 0.00 W/m2 unknown
04:59 71.6 °F 68 °F 30 in NE 3.7 mph 5 mph 88% 0 in 0.00 W/m2 unknown
05:04 71.6 °F 68 °F 30 in NE 3.1 mph 5 mph 88% 0 in 0.00 W/m2 unknown
05:09 71.6 °F 68 °F 30 in NE 3.1 mph 3.7 mph 89% 0 in 0.00 W/m2 unknown
05:14 71.6 °F 68 °F 30 in NE 3.7 mph 5 mph 89% 0 in 0.00 W/m2 unknown
05:19 71.6 °F 68 °F 30 in NE 3.1 mph 5 mph 89% 0 in 0.00 W/m2 unknown
05:24 71.6 °F 68 °F 30 in NNE 1.9 mph 3.7 mph 89% 0 in 0.00 W/m2 unknown
05:29 71.6 °F 68 °F 30 in NNE 1.2 mph 3.1 mph 89% 0 in 0.00 W/m2 unknown
05:34 71.6 °F 68 °F 30 in NNW 1.2 mph 2.5 mph 89% 0 in 0.00 W/m2 unknown
05:39 71.6 °F 68 °F 30 in NNW 0.6 mph 1.9 mph 88% 0 in 0.00 W/m2 unknown
05:44 71.6 °F 68 °F 30 in North 1.9 mph 3.1 mph 89% 0 in 0.00 W/m2 unknown
05:49 71.6 °F 68 °F 30 in NNE 2.5 mph 3.7 mph 89% 0 in 0.00 W/m2 unknown
05:54 71.6 °F 68 °F 30 in NE 3.1 mph 3.7 mph 89% 0 in 0.00 W/m2 unknown
05:59 71.6 °F 68 °F 30 in NE 3.1 mph 3.7 mph 89% 0 in 0.00 W/m2 unknown
06:04 71.6 °F 68 °F 30 in NE 3.7 mph 6.2 mph 88% 0 in 0.00 W/m2 unknown
06:09 71.6 °F 68 °F 30 in NE 3.7 mph 6.2 mph 88% 0 in 0.00 W/m2 unknown
06:14 71.6 °F 68 °F 30 in NE 3.1 mph 5 mph 88% 0 in 5.00 W/m2 unknown
06:19 71.6 °F 68 °F 30 in NE 3.7 mph 5 mph 88% 0 in 7.00 W/m2 unknown
06:24 71.6 °F 68 °F 30 in ENE 4.3 mph 5 mph 88% 0 in 9.00 W/m2 unknown
06:29 71.6 °F 68 °F 30 in NE 4.3 mph 6.8 mph 88% 0 in 12.00 W/m2 unknown
06:34 71.6 °F 68 °F 30 in NNE 6.2 mph 8.7 mph 88% 0 in 12.00 W/m2 unknown
06:39 71.6 °F 68 °F 30 in NE 6.8 mph 9.3 mph 88% 0 in 14.00 W/m2 unknown
06:44 71.6 °F 68 °F 30 in ENE 5 mph 8.7 mph 87% 0 in 16.00 W/m2 unknown
06:49 71.6 °F 68 °F 30 in ESE 1.9 mph 6.8 mph 85% 0 in 18.00 W/m2 unknown
06:54 71.6 °F 68 °F 30 in WSW 2.5 mph 3.7 mph 85% 0 in 21.00 W/m2 unknown
06:59 71.6 °F 68 °F 30 in SW 5 mph 6.8 mph 85% 0 in 25.00 W/m2 unknown
07:04 71.6 °F 68 °F 30 in SW 5 mph 6.8 mph 86% 0 in 25.00 W/m2 unknown
07:09 71.6 °F 68 °F 30 in SSW 3.1 mph 6.2 mph 87% 0 in 28.00 W/m2 unknown
07:14 71.6 °F 68 °F 30 in SW 3.1 mph 3.7 mph 87% 0 in 32.00 W/m2 unknown
07:19 71.6 °F 68 °F 30 in SW 4.3 mph 6.8 mph 87% 0 in 35.00 W/m2 unknown
07:24 71.6 °F 68 °F 30 in South 3.1 mph 6.8 mph 88% 0 in 40.00 W/m2 unknown
07:29 71.6 °F 68 °F 30 in South 3.7 mph 5 mph 88% 0 in 46.00 W/m2 unknown
07:34 71.6 °F 68 °F 30 in SSW 5.6 mph 6.8 mph 88% 0 in 56.00 W/m2 unknown
07:39 71.6 °F 68 °F 30 in SSW 4.3 mph 6.8 mph 88% 0 in 74.00 W/m2 unknown
07:44 71.6 °F 68 °F 30 in SW 3.1 mph 6.2 mph 88% 0 in 132.00 W/m2 unknown
07:49 71.6 °F 68 °F 30 in WNW 3.7 mph 5 mph 88% 0 in 162.00 W/m2 unknown
07:54 73.4 °F 68 °F 30 in WNW 3.1 mph 5 mph 88% 0 in 185.00 W/m2 unknown
07:59 73.4 °F 68 °F 30 in West 2.5 mph 3.7 mph 87% 0 in 206.00 W/m2 unknown
08:04 73.4 °F 69.8 °F 30 in West 3.1 mph 3.7 mph 86% 0 in 225.00 W/m2 unknown
08:09 73.4 °F 69.8 °F 30 in West 1.9 mph 3.7 mph 85% 0 in 239.00 W/m2 unknown
08:14 75.2 °F 69.8 °F 30 in West 1.9 mph 3.7 mph 85% 0 in 243.00 W/m2 unknown
08:19 75.2 °F 69.8 °F 30 in West 3.1 mph 3.7 mph 84% 0 in 130.00 W/m2 unknown
08:24 75.2 °F 69.8 °F 30 in West 3.1 mph 3.7 mph 84% 0 in 142.00 W/m2 unknown
08:29 75.2 °F 69.8 °F 30 in WNW 3.1 mph 3.7 mph 84% 0 in 283.00 W/m2 unknown
08:34 75.2 °F 69.8 °F 30 in WNW 3.7 mph 3.7 mph 83% 0 in 309.00 W/m2 unknown
08:39 75.2 °F 69.8 °F 30 in WNW 3.1 mph 3.7 mph 82% 0 in 309.00 W/m2 unknown
08:44 77 °F 69.8 °F 30 in WNW 3.1 mph 5 mph 82% 0 in 308.00 W/m2 unknown
08:49 77 °F 69.8 °F 30 in WNW 5 mph 6.2 mph 82% 0 in 369.00 W/m2 unknown
08:54 77 °F 69.8 °F 30 in WNW 5.6 mph 6.2 mph 80% 0 in 383.00 W/m2 unknown
08:59 77 °F 69.8 °F 30 in WNW 3.7 mph 6.2 mph 79% 0 in 399.00 W/m2 unknown
09:04 77 °F 69.8 °F 30 in West 5 mph 6.8 mph 78% 0 in 431.00 W/m2 unknown
09:09 78.8 °F 69.8 °F 30 in WSW 3.1 mph 6.8 mph 78% 0 in 441.00 W/m2 unknown
09:14 78.8 °F 69.8 °F 30 in West 5.6 mph 6.8 mph 77% 0 in 483.00 W/m2 unknown
09:19 78.8 °F 69.8 °F 30 in West 5 mph 6.8 mph 76% 0 in 492.00 W/m2 unknown
09:24 78.8 °F 69.8 °F 30 in West 5 mph 6.8 mph 76% 0 in 492.00 W/m2 unknown
09:29 78.8 °F 69.8 °F 30 in West 5 mph 6.2 mph 75% 0 in 561.00 W/m2 unknown
09:34 78.8 °F 69.8 °F 30 in WSW 5.6 mph 6.8 mph 75% 0 in 561.00 W/m2 unknown
09:39 78.8 °F 69.8 °F 30 in WSW 6.2 mph 6.8 mph 73% 0 in 548.00 W/m2 unknown
09:44 78.8 °F 69.8 °F 30 in West 5.6 mph 8.1 mph 74% 0 in 619.00 W/m2 unknown
09:49 78.8 °F 69.8 °F 30 in West 5.6 mph 8.1 mph 73% 0 in 633.00 W/m2 unknown
09:54 78.8 °F 69.8 °F 30 in WNW 5 mph 8.1 mph 73% 0 in 652.00 W/m2 unknown
09:59 80.6 °F 69.8 °F 30 in NW 3.1 mph 5 mph 72% 0 in 652.00 W/m2 unknown
10:04 80.6 °F 69.8 °F 30 in SW 4.3 mph 6.2 mph 72% 0 in 715.00 W/m2 unknown
10:09 80.6 °F 69.8 °F 30 in SW 4.3 mph 6.2 mph 70% 0 in 724.00 W/m2 unknown
10:14 80.6 °F 68 °F 30 in SW 2.5 mph 6.2 mph 66% 0 in 724.00 W/m2 unknown
10:19 80.6 °F 69.8 °F 30 in West 3.7 mph 6.8 mph 67% 0 in 724.00 W/m2 unknown
10:24 80.6 °F 69.8 °F 30 in WNW 4.3 mph 6.8 mph 67% 0 in 383.00 W/m2 unknown
10:29 82.4 °F 68 °F 30 in WNW 3.1 mph 6.8 mph 65% 0 in 705.00 W/m2 unknown
10:34 82.4 °F 69.8 °F 30 in West 3.1 mph 5 mph 65% 0 in 854.00 W/m2 unknown
10:39 82.4 °F 69.8 °F 30 in WNW 4.3 mph 6.2 mph 66% 0 in 861.00 W/m2 unknown
10:44 82.4 °F 69.8 °F 30 in NW 3.7 mph 6.2 mph 68% 0 in 367.00 W/m2 unknown
10:49 82.4 °F 69.8 °F 30 in NW 3.1 mph 5 mph 68% 0 in 867.00 W/m2 unknown
10:54 82.4 °F 69.8 °F 30 in NNE 3.7 mph 5 mph 68% 0 in 902.00 W/m2 unknown
10:59 84.2 °F 71.6 °F 30 in NNE 3.7 mph 6.2 mph 67% 0 in 872.00 W/m2 unknown
11:04 84.2 °F 71.6 °F 30 in NNW 3.1 mph 6.2 mph 66% 0 in 828.00 W/m2 unknown
11:09 84.2 °F 69.8 °F 30 in NE 6.8 mph 9.9 mph 65% 0 in 629.00 W/m2 unknown
11:14 82.4 °F 69.8 °F 30 in NE 7.5 mph 10.6 mph 66% 0 in 287.00 W/m2 unknown
11:19 82.4 °F 69.8 °F 30 in NNE 6.2 mph 9.9 mph 69% 0 in 364.00 W/m2 unknown
11:24 82.4 °F 69.8 °F 30 in NNE 5 mph 6.8 mph 68% 0 in 601.00 W/m2 unknown
11:29 82.4 °F 71.6 °F 30 in ENE 5 mph 6.8 mph 68% 0 in 587.00 W/m2 unknown
11:34 82.4 °F 71.6 °F 30 in East 6.8 mph 8.1 mph 68% 0 in 872.00 W/m2 unknown
11:39 84.2 °F 69.8 °F 30 in ESE 5 mph 8.1 mph 66% 0 in 872.00 W/m2 unknown
11:44 84.2 °F 69.8 °F 30 in SE 5.6 mph 6.8 mph 65% 0 in 867.00 W/m2 unknown
11:49 84.2 °F 69.8 °F 30 in SSE 3.7 mph 6.8 mph 65% 0 in 849.00 W/m2 unknown
11:54 84.2 °F 69.8 °F 30 in SSE 3.7 mph 6.2 mph 62% 0 in 921.00 W/m2 unknown
11:59 84.2 °F 69.8 °F 30 in ENE 6.2 mph 9.3 mph 62% 0 in 793.00 W/m2 unknown
12:04 84.2 °F 68 °F 30 in NNE 6.2 mph 8.7 mph 61% 0 in 733.00 W/m2 unknown
12:09 82.4 °F 68 °F 30 in NE 3.1 mph 5 mph 61% 0 in 322.00 W/m2 unknown
12:14 82.4 °F 68 °F 30 in East 5 mph 6.8 mph 62% 0 in 290.00 W/m2 unknown
12:19 82.4 °F 68 °F 30 in East 5 mph 6.8 mph 63% 0 in 334.00 W/m2 unknown
12:24 82.4 °F 68 °F 30 in ENE 3.1 mph 5 mph 62% 0 in 348.00 W/m2 unknown
12:29 82.4 °F 68 °F 30 in ESE 3.1 mph 5 mph 63% 0 in 371.00 W/m2 unknown
12:34 82.4 °F 68 °F 30 in ESE 4.3 mph 6.2 mph 64% 0 in 471.00 W/m2 unknown
12:39 82.4 °F 69.8 °F 30 in SE 5 mph 6.8 mph 65% 0 in 555.00 W/m2 unknown
12:44 82.4 °F 68 °F 30 in South 3.1 mph 6.8 mph 62% 0 in 580.00 W/m2 unknown
12:49 84.2 °F 68 °F 30 in SE 4.3 mph 5 mph 62% 0 in 745.00 W/m2 unknown
12:54 84.2 °F 68 °F 30 in East 2.5 mph 5 mph 61% 0 in 900.00 W/m2 unknown
12:59 84.2 °F 68 °F 30 in ESE 4.3 mph 6.8 mph 61% 0 in 888.00 W/m2 unknown
13:04 82.4 °F 68 °F 30 in ESE 5 mph 6.8 mph 62% 0 in 529.00 W/m2 unknown
13:09 82.4 °F 68 °F 30 in ESE 3.1 mph 6.2 mph 61% 0 in 529.00 W/m2 unknown
13:14 84.2 °F 68 °F 30 in ENE 3.1 mph 5 mph 61% 0 in 468.00 W/m2 unknown
13:19 84.2 °F 69.8 °F 30 in NE 1.9 mph 5 mph 62% 0 in 471.00 W/m2 unknown
13:24 84.2 °F 68 °F 30 in South 4.3 mph 6.8 mph 61% 0 in 438.00 W/m2 unknown
13:29 84.2 °F 68 °F 30 in SW 3.7 mph 6.8 mph 60% 0 in 438.00 W/m2 unknown
13:34 84.2 °F 68 °F 30 in SSW 4.3 mph 6.2 mph 59% 0 in 494.00 W/m2 unknown
13:39 84.2 °F 68 °F 30 in SSE 3.1 mph 3.7 mph 59% 0 in 664.00 W/m2 unknown
13:44 84.2 °F 69.8 °F 30 in South 3.1 mph 5 mph 61% 0 in 940.00 W/m2 unknown
13:49 84.2 °F 69.8 °F 30 in ESE 6.2 mph 8.1 mph 61% 0 in 963.00 W/m2 unknown
13:54 84.2 °F 68 °F 30 in ESE 6.2 mph 8.1 mph 60% 0 in 1028.00 W/m2 unknown
13:59 86 °F 69.8 °F 30 in East 3.1 mph 8.1 mph 59% 0 in 1028.00 W/m2 unknown
14:04 86 °F 69.8 °F 30 in SSW 3.7 mph 6.2 mph 58% 0 in 951.00 W/m2 unknown
14:09 86 °F 68 °F 30 in ENE 3.7 mph 6.2 mph 58% 0 in 868.00 W/m2 unknown
14:14 86 °F 69.8 °F 30 in ENE 3.7 mph 6.2 mph 59% 0 in 821.00 W/m2 unknown
14:19 86 °F 69.8 °F 30 in ESE 3.7 mph 5 mph 59% 0 in 854.00 W/m2 unknown
14:24 86 °F 69.8 °F 30 in SE 3.7 mph 5 mph 58% 0 in 758.00 W/m2 unknown
14:29 86 °F 69.8 °F 30 in ESE 5.6 mph 6.8 mph 58% 0 in 810.00 W/m2 unknown
14:34 86 °F 69.8 °F 30 in ESE 5 mph 6.8 mph 58% 0 in 796.00 W/m2 unknown
14:39 86 °F 69.8 °F 30 in ESE 5 mph 6.8 mph 58% 0 in 714.00 W/m2 unknown
14:44 86 °F 69.8 °F 30 in SE 4.3 mph 6.8 mph 58% 0 in 765.00 W/m2 unknown
14:49 86 °F 69.8 °F 30 in ESE 4.3 mph 6.2 mph 58% 0 in 838.00 W/m2 unknown
14:54 86 °F 69.8 °F 30 in ESE 3.7 mph 6.2 mph 58% 0 in 773.00 W/m2 unknown
14:59 86 °F 69.8 °F 30 in East 5.6 mph 8.1 mph 58% 0 in 761.00 W/m2 unknown
15:04 86 °F 69.8 °F 30 in ESE 5 mph 8.1 mph 57% 0 in 761.00 W/m2 unknown
15:09 86 °F 69.8 °F 30 in East 5 mph 6.8 mph 57% 0 in 765.00 W/m2 unknown
15:14 86 °F 69.8 °F 30 in East 2.5 mph 6.8 mph 57% 0 in 837.00 W/m2 unknown
15:19 86 °F 69.8 °F 30 in ESE 6.2 mph 8.7 mph 58% 0 in 819.00 W/m2 unknown
15:24 86 °F 69.8 °F 30 in East 6.2 mph 9.3 mph 56% 0 in 733.00 W/m2 unknown
15:29 86 °F 69.8 °F 30 in East 3.7 mph 8.7 mph 58% 0 in 784.00 W/m2 unknown
15:34 86 °F 69.8 °F 30 in East 5 mph 6.8 mph 58% 0 in 796.00 W/m2 unknown
15:39 86 °F 69.8 °F 30 in East 5 mph 6.8 mph 57% 0 in 735.00 W/m2 unknown
15:44 86 °F 69.8 °F 30 in SE 5 mph 6.8 mph 56% 0 in 717.00 W/m2 unknown
15:49 86 °F 69.8 °F 30 in SE 5 mph 6.8 mph 56% 0 in 640.00 W/m2 unknown
15:54 87.8 °F 68 °F 30 in ESE 5 mph 6.8 mph 55% 0 in 654.00 W/m2 unknown
15:59 86 °F 68 °F 30 in SE 3.1 mph 6.8 mph 55% 0 in 654.00 W/m2 unknown
16:04 87.8 °F 69.8 °F 30 in East 3.1 mph 5 mph 57% 0 in 707.00 W/m2 unknown
16:09 87.8 °F 68 °F 30 in East 5 mph 6.2 mph 53% 0 in 707.00 W/m2 unknown
16:14 86 °F 68 °F 30 in ENE 3.7 mph 6.2 mph 54% 0 in 626.00 W/m2 unknown
16:19 86 °F 68 °F 30 in ESE 3.7 mph 6.2 mph 54% 0 in 628.00 W/m2 unknown
16:24 86 °F 68 °F 29.9 in ESE 3.7 mph 5 mph 53% 0 in 622.00 W/m2 unknown
16:29 87.8 °F 66.2 °F 29.9 in SE 3.1 mph 5 mph 51% 0 in 631.00 W/m2 unknown
16:34 87.8 °F 68 °F 29.9 in ESE 3.1 mph 5 mph 52% 0 in 610.00 W/m2 unknown
16:39 87.8 °F 68 °F 29.9 in NW 1.9 mph 5 mph 53% 0 in 610.00 W/m2 unknown
16:44 87.8 °F 68 °F 29.9 in East 4.3 mph 6.2 mph 54% 0 in 608.00 W/m2 unknown
16:49 87.8 °F 68 °F 29.9 in North 3.1 mph 6.2 mph 54% 0 in 594.00 W/m2 unknown
16:54 87.8 °F 69.8 °F 29.9 in NNE 3.1 mph 6.2 mph 54% 0 in 573.00 W/m2 unknown
16:59 87.8 °F 68 °F 29.9 in North 3.1 mph 5 mph 53% 0 in 568.00 W/m2 unknown
17:04 87.8 °F 68 °F 29.9 in East 3.1 mph 5 mph 53% 0 in 548.00 W/m2 unknown
17:09 87.8 °F 68 °F 29.9 in ESE 3.1 mph 5 mph 53% 0 in 529.00 W/m2 unknown
17:14 87.8 °F 69.8 °F 29.9 in South 3.7 mph 5 mph 54% 0 in 401.00 W/m2 unknown
17:19 87.8 °F 69.8 °F 29.9 in ENE 5.6 mph 6.8 mph 54% 0 in 309.00 W/m2 unknown
17:24 87.8 °F 68 °F 29.9 in East 4.3 mph 6.8 mph 53% 0 in 431.00 W/m2 unknown
17:29 87.8 °F 68 °F 29.9 in East 4.3 mph 6.2 mph 54% 0 in 469.00 W/m2 unknown
17:34 87.8 °F 68 °F 30 in SE 3.1 mph 3.7 mph 54% 0 in 462.00 W/m2 unknown
17:39 87.8 °F 68 °F 30 in ESE 1.9 mph 3.7 mph 52% 0 in 452.00 W/m2 unknown
17:44 87.8 °F 68 °F 29.9 in East 3.1 mph 5 mph 52% 0 in 424.00 W/m2 unknown
17:49 87.8 °F 66.2 °F 30 in ESE 3.1 mph 5 mph 51% 0 in 424.00 W/m2 unknown
17:54 87.8 °F 68 °F 30 in East 5 mph 6.2 mph 54% 0 in 396.00 W/m2 unknown
17:59 87.8 °F 68 °F 30 in ENE 3.1 mph 6.2 mph 53% 0 in 404.00 W/m2 unknown
18:04 87.8 °F 68 °F 30 in East 3.1 mph 3.7 mph 53% 0 in 394.00 W/m2 unknown
18:09 87.8 °F 68 °F 30 in East 3.1 mph 5 mph 53% 0 in 378.00 W/m2 unknown
18:14 87.8 °F 68 °F 29.9 in East 3.7 mph 5 mph 52% 0 in 360.00 W/m2 unknown
18:19 87.8 °F 68 °F 30 in ENE 3.1 mph 5 mph 53% 0 in 345.00 W/m2 unknown
18:24 87.8 °F 68 °F 30 in East 3.1 mph 5 mph 55% 0 in 315.00 W/m2 unknown
18:29 87.8 °F 68 °F 30 in East 3.7 mph 6.2 mph 55% 0 in 308.00 W/m2 unknown
18:34 87.8 °F 68 °F 30 in NE 5 mph 6.2 mph 54% 0 in 294.00 W/m2 unknown
18:39 86 °F 68 °F 30 in NE 4.3 mph 6.2 mph 53% 0 in 265.00 W/m2 unknown
18:44 86 °F 68 °F 30 in NNE 5 mph 6.2 mph 55% 0 in 211.00 W/m2 unknown
18:49 86 °F 68 °F 29.9 in NE 4.3 mph 5 mph 54% 0 in 186.00 W/m2 unknown
18:54 86 °F 68 °F 29.9 in NE 4.3 mph 5 mph 54% 0 in 185.00 W/m2 unknown
18:59 86 °F 68 °F 29.9 in NE 3.1 mph 5 mph 54% 0 in 165.00 W/m2 unknown
19:04 86 °F 68 °F 29.9 in NE 3.1 mph 3.7 mph 54% 0 in 153.00 W/m2 unknown
19:09 86 °F 68 °F 29.9 in NE 3.7 mph 5 mph 55% 0 in 144.00 W/m2 unknown
19:14 86 °F 68 °F 29.9 in NE 3.1 mph 5 mph 55% 0 in 144.00 W/m2 unknown
19:19 86 °F 68 °F 29.9 in NE 2.5 mph 3.7 mph 56% 0 in 113.00 W/m2 unknown
19:24 86 °F 69.8 °F 29.9 in ENE 2.5 mph 3.7 mph 58% 0 in 135.00 W/m2 unknown
19:29 86 °F 68 °F 30 in ENE 3.7 mph 3.7 mph 57% 0 in 135.00 W/m2 unknown
19:34 86 °F 68 °F 30 in NE 2.5 mph 3.7 mph 57% 0 in 114.00 W/m2 unknown
19:39 86 °F 68 °F 30 in NE 3.1 mph 3.7 mph 56% 0 in 102.00 W/m2 unknown
19:44 86 °F 68 °F 30 in NE 3.1 mph 5 mph 57% 0 in 49.00 W/m2 unknown
19:49 84.2 °F 68 °F 30 in NNE 3.1 mph 5 mph 57% 0 in 33.00 W/m2 unknown
19:54 84.2 °F 68 °F 30 in NE 3.1 mph 5 mph 57% 0 in 32.00 W/m2 unknown
19:59 84.2 °F 68 °F 30 in NE 2.5 mph 3.7 mph 59% 0 in 28.00 W/m2 unknown
20:04 84.2 °F 68 °F 30 in NE 1.9 mph 3.7 mph 59% 0 in 25.00 W/m2 unknown
20:09 84.2 °F 69.8 °F 30 in NE 1.2 mph 3.1 mph 61% 0 in 21.00 W/m2 unknown
20:14 84.2 °F 69.8 °F 30 in NE 1.2 mph 2.5 mph 62% 0 in 18.00 W/m2 unknown
20:19 84.2 °F 69.8 °F 30 in NE 1.2 mph 1.9 mph 62% 0 in 14.00 W/m2 unknown
20:24 84.2 °F 69.8 °F 30 in NE 1.2 mph 2.5 mph 63% 0 in 12.00 W/m2 unknown
20:29 82.4 °F 69.8 °F 30 in NE 0.6 mph 1.9 mph 64% 0 in 11.00 W/m2 unknown
20:34 82.4 °F 69.8 °F 30 in Calm   1.2 mph 65% 0 in 7.00 W/m2 unknown
20:39 82.4 °F 69.8 °F 30 in NE 0.6 mph 1.2 mph 65% 0 in 5.00 W/m2 unknown
20:44 82.4 °F 69.8 °F 30 in NE 1.2 mph 1.9 mph 66% 0 in 0.00 W/m2 unknown
20:49 82.4 °F 69.8 °F 30 in NE 1.2 mph 2.5 mph 66% 0 in 0.00 W/m2 unknown
20:54 82.4 °F 69.8 °F 30 in NE 1.2 mph 2.5 mph 66% 0 in 0.00 W/m2 unknown
20:59 82.4 °F 69.8 °F 30 in NE 1.2 mph 1.9 mph 67% 0 in 0.00 W/m2 unknown
21:04 80.6 °F 69.8 °F 30 in NE 1.2 mph 1.2 mph 67% 0 in 0.00 W/m2 unknown
21:09 80.6 °F 69.8 °F 30 in NE 0.6 mph 1.2 mph 68% 0 in 0.00 W/m2 unknown
21:14 80.6 °F 68 °F 30 in NE 1.2 mph 1.2 mph 67% 0 in 0.00 W/m2 unknown
21:19 80.6 °F 68 °F 30 in NE 0.6 mph 1.2 mph 68% 0 in 0.00 W/m2 unknown
21:24 80.6 °F 68 °F 30 in NE 1.2 mph 2.5 mph 68% 0 in 0.00 W/m2 unknown
21:29 80.6 °F 69.8 °F 30 in NE 1.2 mph 2.5 mph 68% 0 in 0.00 W/m2 unknown
21:34 80.6 °F 69.8 °F 30 in NE 1.2 mph 2.5 mph 69% 0 in 0.00 W/m2 unknown
21:39 80.6 °F 69.8 °F 30 in NE 1.2 mph 2.5 mph 69% 0 in 0.00 W/m2 unknown
21:44 80.6 °F 69.8 °F 30 in NE 1.2 mph 1.9 mph 69% 0 in 0.00 W/m2 unknown
21:49 78.8 °F 69.8 °F 30 in Calm   1.2 mph 70% 0 in 0.00 W/m2 unknown
21:54 78.8 °F 69.8 °F 30 in NE 1.2 mph 2.5 mph 72% 0 in 0.00 W/m2 unknown
21:59 78.8 °F 69.8 °F 30 in NE 1.2 mph 1.9 mph 72% 0 in 0.00 W/m2 unknown
22:04 80.6 °F 69.8 °F 30 in NE 0.6 mph 1.2 mph 71% 0 in 0.00 W/m2 unknown
22:09 80.6 °F 69.8 °F 30 in NE 0.6 mph 1.2 mph 72% 0 in 0.00 W/m2 unknown
22:14 78.8 °F 69.8 °F 30 in NNE 0.6 mph 1.9 mph 73% 0 in 0.00 W/m2 unknown
22:19 78.8 °F 69.8 °F 30 in North 1.2 mph 2.5 mph 71% 0 in 0.00 W/m2 unknown
22:24 78.8 °F 69.8 °F 30 in North 1.2 mph 2.5 mph 72% 0 in 0.00 W/m2 unknown
22:29 78.8 °F 69.8 °F 30 in North 1.2 mph 1.9 mph 73% 0 in 0.00 W/m2 unknown
22:34 78.8 °F 69.8 °F 30 in North 1.2 mph 2.5 mph 72% 0 in 0.00 W/m2 unknown
22:39 78.8 °F 69.8 °F 30 in NNE 1.2 mph 2.5 mph 71% 0 in 0.00 W/m2 unknown
22:44 78.8 °F 69.8 °F 30 in Calm   1.9 mph 72% 0 in 0.00 W/m2 unknown
22:49 78.8 °F 69.8 °F 30 in North 1.2 mph 2.5 mph 75% 0 in 0.00 W/m2 unknown
22:54 78.8 °F 69.8 °F 30 in North 1.9 mph 3.1 mph 76% 0 in 0.00 W/m2 unknown
22:59 78.8 °F 69.8 °F 30 in NNW 1.9 mph 3.7 mph 74% 0 in 0.00 W/m2 unknown
23:04 78.8 °F 69.8 °F 30 in Calm   3.1 mph 74% 0 in 0.00 W/m2 unknown
23:08 78.8 °F 69.8 °F 30 in North 1.2 mph 2.5 mph 75% 0 in 0.00 W/m2 unknown
23:24 78.8 °F 68 °F 30 in NNE 3.7 mph 5.6 mph 70% 0 in 0.00 W/m2 unknown
23:29 78.8 °F 68 °F 30 in NNE 3.7 mph 6.2 mph 70% 0 in 0.00 W/m2 unknown
23:34 78.8 °F 68 °F 30 in NE 4.3 mph 5 mph 71% 0 in 0.00 W/m2 unknown
23:39 78.8 °F 69.8 °F 30 in NE 4.3 mph 5 mph 72% 0 in 0.00 W/m2 unknown
23:44 78.8 °F 69.8 °F 30 in NE 5 mph 6.8 mph 73% 0 in 0.00 W/m2 unknown
23:49 78.8 °F 69.8 °F 30 in NE 5 mph 6.8 mph 75% 0 in 0.00 W/m2 unknown
23:54 77 °F 69.8 °F 30 in NE 4.3 mph 6.2 mph 75% 0 in 0.00 W/m2 unknown
23:59 77 °F 68 °F 30 in NE 3.7 mph 6.2 mph 75% 0 in 0.00 W/m2 unknown
Stazione Meteorologica MeteoMincio Rivalta s/M (MN)
Con i complimenti di Weather Underground - 4 mb



GLOSSARIO METEOROLOGICO
Pioggia
Precipitazione di gocce d'acqua di vario diametro, tra 0,5 e 7 mm. Le gocce di pioggia traggono origine dalle gocce di nube: quando quest'ultime diventano abbastanza grosse da poter cadere prendono il nome di gocce di pioggia. Una goccia di pioggia contiene circa centomila goccioline di nube e si forma per coalescenza fra gocce di nube piccole e più grosse. La pioggia minuta e persistente cade dagli altostrati che partono da quote molto basse. La pioggia intensa è prodotta dai nembostrati. Tanto più intensa è la pioggia, tanto è maggiore è lo sviluppo verticale della nube alla cui sommità sono presenti cristalli di ghiaccio. L'unità di misura adottata è il millimetro, che equivale ad un litro d'acqua per metro quadrato di superficie.
Share

Non seguire questo link o sarai bannato dal sito!